createdAt,value
2019-03-23T00:02:51.245Z,9.83
2019-03-23T00:06:05.260Z,8.97
2019-03-23T00:09:19.455Z,8.53
2019-03-23T00:12:39.497Z,12.70
2019-03-23T00:15:53.492Z,12.63
2019-03-23T00:19:07.488Z,13.60
2019-03-23T00:22:21.477Z,12.57
2019-03-23T00:25:35.611Z,11.97
2019-03-23T00:28:50.040Z,7.77
2019-03-23T00:32:04.263Z,12.57
2019-03-23T00:35:18.276Z,8.83
2019-03-23T00:38:32.265Z,10.17
2019-03-23T00:41:46.264Z,12.37
2019-03-23T00:45:00.356Z,10.70
2019-03-23T00:48:14.478Z,12.80
2019-03-23T00:51:28.477Z,11.53
2019-03-23T00:54:42.747Z,14.73
2019-03-23T00:57:56.797Z,12.73
2019-03-23T01:01:11.131Z,8.63
2019-03-23T01:04:25.145Z,11.23
2019-03-23T01:07:39.364Z,10.53
2019-03-23T01:10:53.385Z,14.27
2019-03-23T01:14:07.710Z,15.00
2019-03-23T01:17:21.721Z,15.87
2019-03-23T01:20:36.327Z,13.80
2019-03-23T01:23:50.640Z,10.13
2019-03-23T01:27:04.850Z,10.60
2019-03-23T01:30:19.251Z,10.20
2019-03-23T01:33:33.545Z,11.27
2019-03-23T01:36:47.577Z,10.13
2019-03-23T01:40:01.895Z,13.23
2019-03-23T01:43:16.278Z,10.90
2019-03-23T01:46:30.298Z,14.73
2019-03-23T01:49:44.301Z,12.27
2019-03-23T01:52:58.423Z,9.97
2019-03-23T01:56:12.451Z,9.57
2019-03-23T01:59:26.732Z,10.97
2019-03-23T02:02:40.746Z,9.63
2019-03-23T02:05:54.794Z,10.77
2019-03-23T02:09:08.803Z,8.77
2019-03-23T02:12:23.370Z,11.90
2019-03-23T02:15:37.719Z,14.13
2019-03-23T02:18:51.992Z,8.47
2019-03-23T02:22:06.030Z,9.67
2019-03-23T02:25:20.841Z,8.97
2019-03-23T02:28:34.962Z,11.57
2019-03-23T02:31:49.212Z,11.37
2019-03-23T02:35:03.769Z,14.50
2019-03-23T02:38:17.834Z,17.43
2019-03-23T02:41:31.842Z,14.13
2019-03-23T02:44:45.831Z,9.33
2019-03-23T02:48:00.241Z,11.43
2019-03-23T02:51:14.263Z,10.40
2019-03-23T02:54:28.317Z,13.33
2019-03-23T02:57:42.345Z,14.30
2019-03-23T03:00:56.358Z,12.77
2019-03-23T03:04:10.359Z,10.83
2019-03-23T03:07:24.755Z,11.30
2019-03-23T03:10:39.837Z,12.23
2019-03-23T03:13:54.084Z,12.60
2019-03-23T03:17:08.423Z,12.77
2019-03-23T03:20:22.431Z,11.33
2019-03-23T03:23:36.765Z,14.97
2019-03-23T03:26:50.779Z,11.70
2019-03-23T03:30:05.417Z,11.07
2019-03-23T03:33:19.747Z,14.63
2019-03-23T03:36:34.155Z,11.30
2019-03-23T03:39:48.209Z,14.30
2019-03-23T03:43:02.717Z,15.23
2019-03-23T03:46:16.751Z,13.83
2019-03-23T03:49:30.777Z,15.53
2019-03-23T03:52:45.481Z,16.67
2019-03-23T03:55:59.588Z,15.60
2019-03-23T03:59:13.704Z,11.93
2019-03-23T04:02:27.820Z,17.27
2019-03-23T04:05:41.967Z,14.43
2019-03-23T04:08:56.002Z,14.47
2019-03-23T04:12:10.017Z,14.13
2019-03-23T04:15:24.011Z,13.97
2019-03-23T04:18:38.059Z,12.97
2019-03-23T04:21:52.199Z,12.03
2019-03-23T04:25:07.639Z,14.80
2019-03-23T04:28:21.646Z,16.70
2019-03-23T04:31:35.771Z,18.90
2019-03-23T04:34:49.811Z,17.37
2019-03-23T04:38:03.930Z,13.93
2019-03-23T04:41:18.394Z,15.47
2019-03-23T04:44:32.405Z,18.30
2019-03-23T04:47:46.426Z,17.70
2019-03-23T04:51:00.421Z,17.03
2019-03-23T04:54:14.446Z,16.77
2019-03-23T04:57:28.813Z,19.73
2019-03-23T05:00:42.916Z,16.00
2019-03-23T05:03:56.942Z,18.07
2019-03-23T05:07:11.393Z,17.13
2019-03-23T05:10:25.408Z,17.43
2019-03-23T05:13:39.825Z,16.43
2019-03-23T05:16:53.983Z,16.33
2019-03-23T05:20:09.093Z,21.17
2019-03-23T05:23:23.229Z,20.00
2019-03-23T05:26:37.227Z,19.20
2019-03-23T05:29:51.285Z,21.77
2019-03-23T05:33:05.696Z,21.93
2019-03-23T05:36:20.107Z,24.47
2019-03-23T05:39:34.106Z,22.33
2019-03-23T05:42:48.233Z,19.50
2019-03-23T05:46:02.444Z,19.73
2019-03-23T05:49:16.887Z,16.13
2019-03-23T05:52:30.896Z,20.73
2019-03-23T05:55:45.785Z,20.97
2019-03-23T05:59:00.121Z,21.60
2019-03-23T06:02:14.437Z,18.10
2019-03-23T06:05:28.883Z,22.57
2019-03-23T06:08:43.200Z,22.20
2019-03-23T06:11:57.327Z,24.70
2019-03-23T06:15:11.516Z,27.60
2019-03-23T06:18:25.786Z,25.97
2019-03-23T06:21:39.778Z,26.40
2019-03-23T06:24:53.805Z,25.57
2019-03-23T06:28:07.820Z,21.47
2019-03-23T06:31:21.827Z,21.07
2019-03-23T06:34:36.127Z,24.07
2019-03-23T06:37:50.278Z,27.87
2019-03-23T06:41:04.271Z,36.17
2019-03-23T06:44:18.523Z,44.63
2019-03-23T06:47:32.687Z,37.27
2019-03-23T06:50:46.738Z,34.90
2019-03-23T06:54:00.986Z,39.80
2019-03-23T06:57:15.302Z,28.00
2019-03-23T07:00:29.426Z,28.63
2019-03-23T07:03:43.421Z,23.17
2019-03-23T07:06:57.414Z,26.10
2019-03-23T07:10:12.375Z,25.73
2019-03-23T07:13:26.408Z,87.53
2019-03-23T07:16:42.152Z,60.07
2019-03-23T07:19:56.578Z,59.97
2019-03-23T07:23:10.600Z,57.60
2019-03-23T07:26:24.943Z,50.63
2019-03-23T07:29:39.771Z,44.40
2019-03-23T07:32:54.214Z,42.33
2019-03-23T07:36:08.248Z,37.63
2019-03-23T07:39:27.329Z,34.33
2019-03-23T07:42:38.638Z,34.03
2019-03-23T07:45:52.672Z,32.70
2019-03-23T07:49:06.705Z,28.30
2019-03-23T07:52:20.940Z,36.00
2019-03-23T07:55:35.340Z,26.83
2019-03-23T07:58:49.620Z,31.63
2019-03-23T08:02:04.106Z,35.63
2019-03-23T08:05:19.577Z,62.70
2019-03-23T08:08:33.607Z,104.83
2019-03-23T08:11:47.609Z,73.47
2019-03-23T08:15:01.973Z,56.20
2019-03-23T08:18:15.993Z,63.47
2019-03-23T08:21:30.020Z,57.23
2019-03-23T08:24:44.092Z,57.30
2019-03-23T08:27:58.083Z,67.27
2019-03-23T08:31:12.103Z,64.00
2019-03-23T08:34:26.109Z,60.80
2019-03-23T08:37:40.108Z,64.07
2019-03-23T08:40:54.107Z,59.97
2019-03-23T08:44:08.458Z,56.63
2019-03-23T08:47:22.466Z,55.43
2019-03-23T08:50:36.571Z,59.77
2019-03-23T08:53:50.832Z,57.30
2019-03-23T08:57:04.860Z,61.73
2019-03-23T09:00:19.100Z,58.43
2019-03-23T09:03:33.240Z,56.77
2019-03-23T09:06:47.650Z,58.93
2019-03-23T09:10:02.368Z,61.47
2019-03-23T09:13:16.371Z,57.40
2019-03-23T09:16:30.406Z,55.30
2019-03-23T09:19:44.841Z,51.50
2019-03-23T09:22:58.865Z,50.17
2019-03-23T09:26:13.789Z,54.00
2019-03-23T09:29:27.899Z,48.63
2019-03-23T09:32:42.037Z,46.30
2019-03-23T09:35:56.051Z,51.53
2019-03-23T09:39:10.323Z,52.37
2019-03-23T09:42:24.349Z,51.10
2019-03-23T09:45:39.033Z,51.30
2019-03-23T09:48:53.042Z,54.17
2019-03-23T09:52:07.290Z,55.97
2019-03-23T09:55:21.291Z,62.67
2019-03-23T09:58:35.317Z,56.63
2019-03-23T10:01:49.326Z,57.73
2019-03-23T10:05:04.633Z,62.37
2019-03-23T10:08:18.773Z,56.67
2019-03-23T10:11:32.823Z,62.60
2019-03-23T10:14:46.836Z,54.57
2019-03-23T10:18:01.733Z,64.80
2019-03-23T10:21:15.925Z,60.40
2019-03-23T10:24:30.217Z,58.90
2019-03-23T10:27:44.918Z,56.83
2019-03-23T10:30:58.925Z,53.77
2019-03-23T10:34:12.948Z,56.10
2019-03-23T10:37:27.079Z,57.83
2019-03-23T10:40:42.903Z,57.43
2019-03-23T10:43:57.077Z,58.40
2019-03-23T10:47:11.514Z,60.93
2019-03-23T10:50:25.876Z,56.90
2019-03-23T10:53:40.252Z,57.43
2019-03-23T10:56:54.391Z,57.17
2019-03-23T11:00:09.704Z,53.37
2019-03-23T11:03:23.731Z,53.47
2019-03-23T11:06:38.001Z,56.30
2019-03-23T11:09:52.058Z,53.57
2019-03-23T11:13:06.096Z,57.20
2019-03-23T11:16:20.119Z,60.77
2019-03-23T11:19:34.138Z,58.60
2019-03-23T11:22:48.371Z,57.17
2019-03-23T11:26:02.502Z,57.83
2019-03-23T11:29:16.518Z,63.80
2019-03-23T11:32:30.544Z,58.90
2019-03-23T11:35:44.567Z,57.27
2019-03-23T11:38:58.851Z,54.80
2019-03-23T11:42:13.226Z,58.60
2019-03-23T11:45:27.525Z,58.90
2019-03-23T11:48:41.545Z,58.07
2019-03-23T11:51:56.206Z,59.53
2019-03-23T11:55:10.457Z,59.90
2019-03-23T11:58:24.799Z,59.43
2019-03-23T12:01:38.849Z,64.37
2019-03-23T12:04:52.904Z,67.73
2019-03-23T12:08:07.200Z,62.23
2019-03-23T12:11:21.761Z,58.57
2019-03-23T12:14:35.827Z,61.10
2019-03-23T12:17:49.838Z,60.17
2019-03-23T12:21:04.142Z,61.73
2019-03-23T12:24:18.202Z,63.03
2019-03-23T12:27:32.227Z,63.57
2019-03-23T12:30:46.935Z,61.47
2019-03-23T12:34:00.975Z,65.73
2019-03-23T12:37:15.010Z,68.07
2019-03-23T12:40:29.040Z,65.13
2019-03-23T12:43:43.654Z,62.00
2019-03-23T12:46:57.705Z,69.00
2019-03-23T12:50:12.354Z,67.63
2019-03-23T12:53:26.725Z,62.70
2019-03-23T12:56:40.922Z,64.07
2019-03-23T12:59:55.177Z,67.97
2019-03-23T13:03:09.322Z,62.83
2019-03-23T13:06:23.691Z,60.10
2019-03-23T13:09:38.204Z,61.20
2019-03-23T13:12:52.257Z,65.90
2019-03-23T13:16:06.855Z,64.50
2019-03-23T13:19:21.247Z,66.27
2019-03-23T13:22:35.423Z,63.33
2019-03-23T13:25:49.603Z,62.27
2019-03-23T13:29:03.928Z,63.53
2019-03-23T13:32:18.037Z,61.33
2019-03-23T13:35:32.091Z,60.77
2019-03-23T13:38:46.609Z,64.70
2019-03-23T13:42:01.270Z,65.13
2019-03-23T13:45:15.537Z,62.17
2019-03-23T13:48:29.892Z,69.43
2019-03-23T13:51:44.089Z,71.83
2019-03-23T13:54:58.660Z,63.73
2019-03-23T13:58:13.632Z,68.47
2019-03-23T14:01:28.808Z,64.47
2019-03-23T14:04:43.006Z,66.87
2019-03-23T14:07:57.299Z,65.53
2019-03-23T14:11:11.337Z,65.67
2019-03-23T14:14:25.606Z,63.17
2019-03-23T14:17:40.055Z,65.27
2019-03-23T14:20:54.276Z,63.50
2019-03-23T14:24:08.869Z,66.50
2019-03-23T14:27:23.339Z,66.93
2019-03-23T14:30:37.442Z,67.63
2019-03-23T14:33:51.867Z,64.37
2019-03-23T14:37:06.028Z,68.43
2019-03-23T14:40:20.091Z,63.83
2019-03-23T14:43:34.229Z,64.80
2019-03-23T14:46:48.373Z,59.23
2019-03-23T14:50:02.681Z,58.90
2019-03-23T14:53:16.739Z,61.63
2019-03-23T14:56:31.976Z,60.57
2019-03-23T14:59:46.265Z,54.20
2019-03-23T15:03:00.668Z,61.63
2019-03-23T15:06:15.081Z,56.00
2019-03-23T15:09:29.127Z,58.00
2019-03-23T15:12:43.500Z,54.47
2019-03-23T15:15:58.075Z,58.43
2019-03-23T15:19:12.148Z,60.23
2019-03-23T15:22:26.429Z,59.20
2019-03-23T15:25:40.758Z,65.70
2019-03-23T15:28:54.896Z,62.03
2019-03-23T15:32:08.998Z,67.10
2019-03-23T15:35:23.675Z,66.33
2019-03-23T15:38:37.960Z,67.83
2019-03-23T15:41:52.090Z,64.60
2019-03-23T15:45:08.020Z,65.83
2019-03-23T15:48:22.069Z,67.90
2019-03-23T15:51:36.335Z,71.80
2019-03-23T15:54:51.299Z,70.33
2019-03-23T15:58:05.474Z,72.60
2019-03-23T16:01:19.698Z,77.40
2019-03-23T16:04:34.375Z,72.63
2019-03-23T16:07:48.458Z,74.57
2019-03-23T16:11:02.862Z,72.87
2019-03-23T16:14:17.044Z,74.73
2019-03-23T16:17:31.184Z,73.73
2019-03-23T16:20:45.302Z,71.10
2019-03-23T16:23:59.539Z,80.93
2019-03-23T16:27:13.627Z,76.80
2019-03-23T16:30:29.406Z,83.63
2019-03-23T16:33:43.506Z,89.63
2019-03-23T16:36:57.707Z,90.70
2019-03-23T16:40:11.948Z,79.83
2019-03-23T16:43:26.412Z,88.53
2019-03-23T16:46:40.619Z,87.57
2019-03-23T16:49:54.672Z,90.63
2019-03-23T16:53:08.897Z,86.10
2019-03-23T16:56:22.943Z,88.97
2019-03-23T16:59:37.013Z,90.93
2019-03-23T17:02:51.965Z,90.27
2019-03-23T17:06:06.099Z,87.73
2019-03-23T17:09:20.441Z,92.80
2019-03-23T17:12:34.691Z,92.93
2019-03-23T17:15:49.074Z,93.17
2019-03-23T17:19:03.353Z,91.60
2019-03-23T17:22:17.722Z,85.83
2019-03-23T17:25:31.862Z,96.30
2019-03-23T17:28:45.913Z,90.73
2019-03-23T17:32:00.080Z,93.23
2019-03-23T17:35:14.173Z,88.30
2019-03-23T17:38:28.433Z,91.13
2019-03-23T17:41:43.137Z,101.03
2019-03-23T17:44:57.192Z,97.93
2019-03-23T17:48:11.452Z,95.73
2019-03-23T17:51:25.865Z,98.83
2019-03-23T17:54:39.988Z,105.03
2019-03-23T17:57:54.014Z,102.33
2019-03-23T18:01:19.037Z,105.23
2019-03-23T18:04:26.718Z,102.30
2019-03-23T18:07:41.092Z,109.90
2019-03-23T18:10:55.210Z,106.53
2019-03-23T18:14:09.827Z,106.60
2019-03-23T18:17:25.172Z,103.17
2019-03-23T18:20:39.538Z,109.23
2019-03-23T18:23:53.675Z,107.90
2019-03-23T18:27:08.131Z,107.80
2019-03-23T18:30:38.090Z,116.00
2019-03-23T18:33:52.112Z,105.53
2019-03-23T18:37:06.225Z,110.23
2019-03-23T18:40:20.353Z,118.73
2019-03-23T18:43:34.587Z,161.37
2019-03-23T18:46:49.012Z,158.50
2019-03-23T18:50:03.800Z,129.10
2019-03-23T18:53:18.354Z,111.93
2019-03-23T18:56:32.476Z,107.93
2019-03-23T18:59:47.144Z,117.60
2019-03-23T19:03:01.631Z,116.07
2019-03-23T19:06:15.659Z,114.60
2019-03-23T19:09:29.682Z,114.37
2019-03-23T19:12:43.710Z,113.63
2019-03-23T19:15:57.728Z,113.70
2019-03-23T19:19:12.147Z,123.93
2019-03-23T19:22:26.182Z,117.17
2019-03-23T19:25:40.416Z,150.70
2019-03-23T19:28:54.503Z,147.53
2019-03-23T19:32:08.520Z,117.73
2019-03-23T19:35:22.662Z,113.87
2019-03-23T19:38:36.940Z,123.70
2019-03-23T19:41:50.971Z,125.30
2019-03-23T19:45:05.460Z,126.90
2019-03-23T19:48:19.568Z,176.87
2019-03-23T19:51:33.945Z,162.47
2019-03-23T19:54:48.375Z,136.20
2019-03-23T19:58:03.943Z,126.93
2019-03-23T20:01:17.953Z,135.13
2019-03-23T20:04:32.127Z,116.80
2019-03-23T20:07:46.192Z,119.23
2019-03-23T20:11:00.476Z,111.73
2019-03-23T20:14:14.495Z,117.43
2019-03-23T20:17:28.514Z,109.30
2019-03-23T20:20:42.551Z,108.37
2019-03-23T20:23:56.664Z,124.13
2019-03-23T20:27:11.008Z,126.67
2019-03-23T20:30:25.378Z,118.50
2019-03-23T20:33:39.414Z,115.13
2019-03-23T20:36:53.622Z,115.97
2019-03-23T20:40:08.175Z,129.90
2019-03-23T20:43:22.195Z,127.07
2019-03-23T20:46:36.421Z,121.73
2019-03-23T20:49:51.817Z,152.57
2019-03-23T20:53:06.491Z,138.17
2019-03-23T20:56:20.497Z,123.03
2019-03-23T20:59:34.499Z,215.97
2019-03-23T21:02:48.636Z,154.20
2019-03-23T21:06:03.186Z,142.23
2019-03-23T21:09:17.211Z,133.53
2019-03-23T21:12:31.231Z,248.50
2019-03-23T21:15:45.234Z,177.87
2019-03-23T21:18:59.293Z,131.27
2019-03-23T21:22:13.356Z,132.50
2019-03-23T21:25:27.390Z,198.47
2019-03-23T21:28:41.706Z,140.87
2019-03-23T21:31:55.708Z,148.40
2019-03-23T21:35:10.467Z,284.33
2019-03-23T21:38:24.578Z,178.37
2019-03-23T21:41:38.614Z,140.50
2019-03-23T21:44:52.657Z,140.73
2019-03-23T21:48:06.762Z,175.97
2019-03-23T21:51:20.875Z,121.03
2019-03-23T21:54:34.894Z,136.13
2019-03-23T21:57:48.957Z,152.23
2019-03-23T22:01:03.346Z,139.70
2019-03-23T22:04:17.557Z,213.70
2019-03-23T22:07:31.559Z,173.93
2019-03-23T22:10:45.579Z,143.93
2019-03-23T22:13:59.633Z,147.57
2019-03-23T22:17:13.751Z,142.80
2019-03-23T22:20:27.767Z,141.20
2019-03-23T22:23:42.267Z,139.50
2019-03-23T22:26:56.679Z,141.43
2019-03-23T22:30:11.605Z,142.70
2019-03-23T22:33:25.615Z,165.03
2019-03-23T22:36:39.618Z,156.03
2019-03-23T22:39:53.616Z,165.70
2019-03-23T22:43:08.034Z,151.30
2019-03-23T22:46:22.042Z,135.03
2019-03-23T22:49:36.050Z,147.93
2019-03-23T22:52:50.056Z,144.37
2019-03-23T22:56:04.196Z,140.17
2019-03-23T22:59:18.198Z,146.90
2019-03-23T23:02:32.314Z,145.77
2019-03-23T23:05:46.527Z,152.63
2019-03-23T23:09:00.549Z,152.97
2019-03-23T23:12:14.931Z,166.80
2019-03-23T23:15:28.932Z,135.27
2019-03-23T23:18:42.978Z,141.80
2019-03-23T23:21:57.011Z,139.17
2019-03-23T23:25:11.409Z,164.50
2019-03-23T23:28:25.812Z,172.60
2019-03-23T23:31:40.123Z,180.43
2019-03-23T23:34:54.330Z,229.57
2019-03-23T23:38:08.563Z,183.00
2019-03-23T23:41:22.675Z,162.70
2019-03-23T23:44:37.072Z,165.13
2019-03-23T23:47:51.527Z,162.80
2019-03-23T23:51:06.080Z,144.83
2019-03-23T23:54:20.093Z,150.30
2019-03-23T23:57:34.647Z,142.13
